createdAt,value
2022-09-21T00:01:29.424Z,99265.63
2022-09-21T00:03:58.397Z,99262.13
2022-09-21T00:06:27.853Z,99260.28
2022-09-21T00:08:55.329Z,99258.59
2022-09-21T00:11:26.103Z,99258.59
2022-09-21T00:14:04.607Z,99264.88
2022-09-21T00:16:34.224Z,99264.97
2022-09-21T00:19:01.081Z,99260.53
2022-09-21T00:21:28.293Z,99263.16
2022-09-21T00:23:55.420Z,99263.19
2022-09-21T00:26:24.608Z,99260.50
2022-09-21T00:28:56.579Z,99264.16
2022-09-21T00:31:23.984Z,99270.34
2022-09-21T00:33:51.241Z,99262.44
2022-09-21T00:36:20.519Z,99260.72
2022-09-21T00:38:52.844Z,99262.41
2022-09-21T00:41:20.217Z,99260.78
2022-09-21T00:44:08.346Z,99270.56
2022-09-21T00:46:39.089Z,99268.81
2022-09-21T00:49:06.186Z,99264.41
2022-09-21T00:51:32.964Z,99259.06
2022-09-21T00:54:06.807Z,99264.41
2022-09-21T00:56:35.232Z,99260.88
2022-09-21T00:59:02.995Z,99265.31
2022-09-21T01:01:30.945Z,99260.06
2022-09-21T01:03:57.910Z,99261.84
2022-09-21T01:06:25.277Z,99264.47
2022-09-21T01:08:56.115Z,99257.47
2022-09-21T01:11:34.435Z,99258.34
2022-09-21T01:14:04.164Z,99259.19
2022-09-21T01:16:39.948Z,99255.63
2022-09-21T01:19:31.454Z,99260.91
2022-09-21T01:22:05.903Z,99258.34
2022-09-21T01:24:39.441Z,99254.88
2022-09-21T01:27:38.132Z,99261.97
2022-09-21T01:30:11.855Z,99257.59
2022-09-21T01:32:48.385Z,99262.88
2022-09-21T01:35:21.505Z,99262.09
2022-09-21T01:37:56.990Z,99260.34
2022-09-21T01:40:34.545Z,99265.69
2022-09-21T01:43:05.579Z,99258.66
2022-09-21T01:45:40.774Z,99268.34
2022-09-21T01:48:08.347Z,99261.34
2022-09-21T01:50:40.743Z,99263.06
2022-09-21T01:53:18.420Z,99263.94
2022-09-21T01:55:59.656Z,99261.38
2022-09-21T01:59:06.587Z,99262.28
2022-09-21T02:01:39.960Z,99260.50
2022-09-21T02:04:11.326Z,99262.31
2022-09-21T02:06:41.446Z,99262.31
2022-09-21T02:09:10.554Z,99260.56
2022-09-21T02:11:43.860Z,99261.41
2022-09-21T02:14:21.491Z,99261.41
2022-09-21T02:17:00.766Z,99259.66
2022-09-21T02:19:48.103Z,99259.66
2022-09-21T02:22:29.319Z,99264.06
2022-09-21T02:25:04.822Z,99263.22
2022-09-21T02:27:53.160Z,99259.72
2022-09-21T02:30:22.381Z,99257.94
2022-09-21T02:32:54.992Z,99265.88
2022-09-21T02:35:43.747Z,99265.03
2022-09-21T02:38:17.944Z,99261.53
2022-09-21T02:40:56.664Z,99266.81
2022-09-21T02:43:32.095Z,99266.84
2022-09-21T02:46:09.751Z,99269.53
2022-09-21T02:48:47.066Z,99262.50
2022-09-21T02:51:19.186Z,99265.09
2022-09-21T02:53:47.913Z,99259.84
2022-09-21T02:56:16.002Z,99258.94
2022-09-21T02:58:51.018Z,99261.59
2022-09-21T03:01:19.135Z,99256.31
2022-09-21T03:03:45.912Z,99261.63
2022-09-21T03:06:12.662Z,99253.72
2022-09-21T03:08:39.647Z,99253.72
2022-09-21T03:11:06.469Z,99250.25
2022-09-21T03:13:33.529Z,99246.75
2022-09-21T03:16:02.685Z,99249.41
2022-09-21T03:18:30.539Z,99247.66
2022-09-21T03:20:57.316Z,99252.06
2022-09-21T03:23:24.058Z,99249.47
2022-09-21T03:25:52.327Z,99251.25
2022-09-21T03:28:19.828Z,99252.16
2022-09-21T03:30:47.907Z,99253.03
2022-09-21T03:33:15.177Z,99253.94
2022-09-21T03:35:42.492Z,99247.78
2022-09-21T03:38:09.490Z,99254.81
2022-09-21T03:40:36.284Z,99251.31
2022-09-21T03:43:03.512Z,99256.59
2022-09-21T03:45:30.212Z,99251.34
2022-09-21T03:47:58.736Z,99250.44
2022-09-21T03:50:28.418Z,99248.69
2022-09-21T03:52:56.386Z,99247.84
2022-09-21T03:55:23.668Z,99250.50
2022-09-21T03:57:50.328Z,99258.41
2022-09-21T04:00:17.777Z,99253.13
2022-09-21T04:02:44.614Z,99253.13
2022-09-21T04:05:14.828Z,99258.44
2022-09-21T04:07:42.995Z,99251.38
2022-09-21T04:10:13.015Z,99251.41
2022-09-21T04:12:44.197Z,99252.28
2022-09-21T04:15:15.973Z,99252.31
2022-09-21T04:17:42.655Z,99249.66
2022-09-21T04:20:09.664Z,99257.59
2022-09-21T04:22:41.089Z,99258.44
2022-09-21T04:25:10.664Z,99260.22
2022-09-21T04:27:37.561Z,99261.97
2022-09-21T04:30:05.653Z,99271.66
2022-09-21T04:32:32.348Z,99263.75
2022-09-21T04:34:59.044Z,99265.53
2022-09-21T04:37:25.870Z,99274.34
2022-09-21T04:39:52.669Z,99272.59
2022-09-21T04:42:19.452Z,99271.72
2022-09-21T04:44:46.126Z,99280.53
2022-09-21T04:47:12.906Z,99278.78
2022-09-21T04:49:39.639Z,99280.56
2022-09-21T04:52:06.315Z,99284.09
2022-09-21T04:54:33.041Z,99285.81
2022-09-21T04:56:59.796Z,99288.44
2022-09-21T04:59:26.497Z,99291.97
2022-09-21T05:01:53.211Z,99290.19
2022-09-21T05:04:20.031Z,99292.84
2022-09-21T05:06:46.849Z,99289.28
2022-09-21T05:09:32.248Z,99289.31
2022-09-21T05:11:58.990Z,99285.75
2022-09-21T05:14:25.659Z,99291.94
2022-09-21T05:16:52.392Z,99291.94
2022-09-21T05:19:19.068Z,99293.69
2022-09-21T05:21:46.415Z,99291.06
2022-09-21T05:24:15.943Z,99288.41
2022-09-21T05:26:42.648Z,99296.31
2022-09-21T05:29:09.692Z,99297.19
2022-09-21T05:31:48.413Z,99302.47
2022-09-21T05:34:44.159Z,99309.53
2022-09-21T05:37:37.825Z,99309.53
2022-09-21T05:40:06.281Z,99311.28
2022-09-21T05:42:33.432Z,99304.28
2022-09-21T05:45:00.598Z,99309.56
2022-09-21T05:47:40.536Z,99314.84
2022-09-21T05:50:16.577Z,99312.19
2022-09-21T05:52:49.023Z,99319.19
2022-09-21T05:55:25.137Z,99316.50
2022-09-21T05:58:40.697Z,99320.75
2022-09-21T06:01:10.393Z,99319.56
2022-09-21T06:03:38.171Z,99325.41
2022-09-21T06:06:04.951Z,99325.97
2022-09-21T06:08:31.834Z,99317.53
2022-09-21T06:10:58.669Z,99324.22
2022-09-21T06:13:26.522Z,99319.31
2022-09-21T06:15:53.826Z,99318.69
2022-09-21T06:18:20.617Z,99317.28
2022-09-21T06:20:47.340Z,99310.25
2022-09-21T06:23:15.592Z,99309.28
2022-09-21T06:25:42.302Z,99312.38
2022-09-21T06:28:11.727Z,99309.50
2022-09-21T06:30:40.773Z,99304.84
2022-09-21T06:33:07.913Z,99296.59
2022-09-21T06:35:36.132Z,99298.81
2022-09-21T06:38:07.630Z,99284.00
2022-09-21T06:40:36.231Z,99280.41
2022-09-21T06:43:04.153Z,99281.38
2022-09-21T06:45:31.272Z,99274.16
2022-09-21T06:47:59.314Z,99271.00
2022-09-21T06:50:26.199Z,99273.91
2022-09-21T06:52:52.934Z,99262.47
2022-09-21T06:55:19.994Z,99271.63
2022-09-21T06:57:47.152Z,99262.50
2022-09-21T07:00:14.510Z,99262.53
2022-09-21T07:02:48.146Z,99251.31
2022-09-21T07:05:14.886Z,99260.59
2022-09-21T07:07:41.617Z,99263.88
2022-09-21T07:10:13.519Z,99257.97
2022-09-21T07:12:41.701Z,99262.06
2022-09-21T07:15:10.327Z,99264.34
2022-09-21T07:17:39.518Z,99252.56
2022-09-21T07:20:08.044Z,99248.97
2022-09-21T07:22:35.715Z,99258.03
2022-09-21T07:25:03.670Z,99261.25
2022-09-21T07:27:32.104Z,99259.53
2022-09-21T07:29:58.895Z,99258.91
2022-09-21T07:32:26.123Z,99260.75
2022-09-21T07:34:56.549Z,99253.41
2022-09-21T07:37:25.014Z,99252.50
2022-09-21T07:39:52.923Z,99250.56
2022-09-21T07:42:23.018Z,99252.69
2022-09-21T07:44:50.918Z,99245.50
2022-09-21T07:47:17.785Z,99243.34
2022-09-21T07:49:45.211Z,99241.88
2022-09-21T07:52:12.374Z,99242.53
2022-09-21T07:54:39.029Z,99257.50
2022-09-21T07:57:24.481Z,99246.25
2022-09-21T07:59:51.247Z,99252.47
2022-09-21T08:02:18.082Z,99250.97
2022-09-21T08:04:44.784Z,99256.25
2022-09-21T08:07:13.272Z,99258.47
2022-09-21T08:09:40.833Z,99251.03
2022-09-21T08:12:09.107Z,99254.31
2022-09-21T08:14:36.058Z,99240.34
2022-09-21T08:17:02.920Z,99250.50
2022-09-21T08:19:29.624Z,99247.66
2022-09-21T08:21:57.908Z,99244.31
2022-09-21T08:24:26.784Z,99250.28
2022-09-21T08:26:55.741Z,99249.63
2022-09-21T08:29:24.606Z,99254.13
2022-09-21T08:31:52.701Z,99250.50
2022-09-21T08:34:20.101Z,99256.22
2022-09-21T08:36:47.199Z,99259.41
2022-09-21T08:39:15.525Z,99258.66
2022-09-21T08:42:06.108Z,99260.75
2022-09-21T08:44:56.361Z,99254.66
2022-09-21T08:47:38.252Z,99258.72
2022-09-21T08:50:14.403Z,99250.19
2022-09-21T08:52:42.059Z,99251.28
2022-09-21T08:55:18.032Z,99259.00
2022-09-21T08:57:44.742Z,99245.44
2022-09-21T09:00:16.770Z,99249.09
2022-09-21T09:03:05.006Z,99248.53
2022-09-21T09:05:41.159Z,99254.88
2022-09-21T09:08:45.277Z,99245.84
2022-09-21T09:11:17.823Z,99247.72
2022-09-21T09:14:22.731Z,99254.25
2022-09-21T09:17:07.986Z,99252.81
2022-09-21T09:19:43.658Z,99249.81
2022-09-21T09:22:15.158Z,99244.47
2022-09-21T09:24:43.092Z,99247.06
2022-09-21T09:27:15.196Z,99246.78
2022-09-21T09:30:02.945Z,99254.53
2022-09-21T09:33:13.742Z,99238.28
2022-09-21T09:35:47.982Z,99235.69
2022-09-21T09:38:19.945Z,99235.66
2022-09-21T09:41:17.749Z,99235.16
2022-09-21T09:43:56.453Z,99230.78
2022-09-21T09:46:32.145Z,99242.06
2022-09-21T09:49:36.790Z,99228.41
2022-09-21T09:52:04.862Z,99229.97
2022-09-21T09:54:35.387Z,99222.06
2022-09-21T09:57:04.574Z,99228.47
2022-09-21T09:59:50.467Z,99223.69
2022-09-21T10:02:27.223Z,99222.72
2022-09-21T10:05:05.884Z,99225.91
2022-09-21T10:07:43.026Z,99220.13
2022-09-21T10:10:29.049Z,99217.44
2022-09-21T10:13:18.534Z,99216.66
2022-09-21T10:15:58.463Z,99212.38
2022-09-21T10:18:50.068Z,99204.78
2022-09-21T10:21:23.528Z,99206.38
2022-09-21T10:23:54.326Z,99196.22
2022-09-21T10:26:21.692Z,99194.84
2022-09-21T10:28:59.582Z,99197.75
2022-09-21T10:31:29.839Z,99211.56
2022-09-21T10:34:16.208Z,99205.06
2022-09-21T10:36:51.785Z,99202.44
2022-09-21T10:39:29.269Z,99204.44
2022-09-21T10:42:12.152Z,99202.56
2022-09-21T10:44:46.984Z,99195.19
2022-09-21T10:47:19.083Z,99191.72
2022-09-21T10:50:26.259Z,99189.75
2022-09-21T10:53:19.195Z,99189.19
2022-09-21T10:56:14.248Z,99196.13
2022-09-21T10:59:20.499Z,99187.94
2022-09-21T11:01:50.115Z,99182.78
2022-09-21T11:04:43.537Z,99175.94
2022-09-21T11:07:27.352Z,99181.53
2022-09-21T11:10:34.647Z,99176.91
2022-09-21T11:13:44.230Z,99184.34
2022-09-21T11:16:13.936Z,99196.94
2022-09-21T11:18:53.890Z,99189.56
2022-09-21T11:21:30.098Z,99173.53
2022-09-21T11:24:03.247Z,99187.44
2022-09-21T11:26:38.223Z,99191.56
2022-09-21T11:29:13.423Z,99175.75
2022-09-21T11:32:15.058Z,99176.91
2022-09-21T11:35:17.493Z,99176.13
2022-09-21T11:37:56.481Z,99175.94
2022-09-21T11:40:32.325Z,99177.72
2022-09-21T11:43:20.182Z,99168.53
2022-09-21T11:46:01.403Z,99164.59
2022-09-21T11:48:39.739Z,99156.13
2022-09-21T11:51:15.666Z,99160.47
2022-09-21T11:54:08.476Z,99144.31
2022-09-21T11:56:53.533Z,99159.75
2022-09-21T11:59:32.838Z,99154.84
2022-09-21T12:02:44.649Z,99166.28
2022-09-21T12:05:29.780Z,99156.22
2022-09-21T12:08:19.580Z,99158.72
2022-09-21T12:10:58.506Z,99155.72
2022-09-21T12:13:46.957Z,99152.63
2022-09-21T12:16:16.938Z,99162.81
2022-09-21T12:18:55.069Z,99165.66
2022-09-21T12:21:27.481Z,99175.16
2022-09-21T12:23:57.121Z,99165.50
2022-09-21T12:26:29.638Z,99153.53
2022-09-21T12:29:02.811Z,99160.06
2022-09-21T12:31:51.301Z,99147.84
2022-09-21T12:34:22.778Z,99148.72
2022-09-21T12:37:12.476Z,99142.03
2022-09-21T12:39:41.867Z,99147.00
2022-09-21T12:42:17.279Z,99137.72
2022-09-21T12:44:55.566Z,99146.47
2022-09-21T12:47:45.891Z,99148.16
2022-09-21T12:50:18.447Z,99150.44
2022-09-21T12:52:46.013Z,99138.59
2022-09-21T12:55:17.435Z,99133.97
2022-09-21T12:58:15.789Z,99143.44
2022-09-21T13:01:01.603Z,99142.53
2022-09-21T13:03:44.826Z,99130.00
2022-09-21T13:06:41.810Z,99131.94
2022-09-21T13:09:13.296Z,99139.31
2022-09-21T13:12:07.767Z,99137.69
2022-09-21T13:14:41.538Z,99143.91
2022-09-21T13:17:20.723Z,99140.00
2022-09-21T13:20:17.697Z,99134.75
2022-09-21T13:23:06.734Z,99128.91
2022-09-21T13:25:37.642Z,99132.19
2022-09-21T13:28:24.136Z,99125.25
2022-09-21T13:31:09.931Z,99139.13
2022-09-21T13:34:15.695Z,99131.78
2022-09-21T13:36:43.506Z,99130.38
2022-09-21T13:39:18.774Z,99128.91
2022-09-21T13:42:02.512Z,99117.38
2022-09-21T13:44:34.707Z,99120.63
2022-09-21T13:47:02.212Z,99114.72
2022-09-21T13:49:34.694Z,99125.25
2022-09-21T13:52:13.404Z,99120.22
2022-09-21T13:54:56.953Z,99117.53
2022-09-21T13:57:47.035Z,99115.19
2022-09-21T14:00:14.376Z,99107.75
2022-09-21T14:02:44.702Z,99104.66
2022-09-21T14:05:43.190Z,99101.84
2022-09-21T14:08:15.943Z,99097.59
2022-09-21T14:10:56.634Z,99105.34
2022-09-21T14:13:31.601Z,99112.22
2022-09-21T14:16:47.459Z,99107.06
2022-09-21T14:19:17.366Z,99106.56
2022-09-21T14:22:07.422Z,99110.03
2022-09-21T14:24:49.631Z,99109.84
2022-09-21T14:27:46.104Z,99106.06
2022-09-21T14:30:22.331Z,99110.91
2022-09-21T14:33:01.160Z,99101.97
2022-09-21T14:35:33.842Z,99110.78
2022-09-21T14:38:07.999Z,99105.19
2022-09-21T14:40:39.826Z,99107.94
2022-09-21T14:45:57.164Z,99101.97
2022-09-21T14:48:58.333Z,99102.44
2022-09-21T14:51:55.678Z,99088.19
2022-09-21T14:54:37.560Z,99098.16
2022-09-21T14:57:23.804Z,99096.81
2022-09-21T15:00:14.671Z,99089.81
2022-09-21T15:02:44.566Z,99083.16
2022-09-21T15:05:29.409Z,99083.75
2022-09-21T15:08:39.442Z,99082.28
2022-09-21T15:11:24.276Z,99082.69
2022-09-21T15:14:07.546Z,99080.16
2022-09-21T15:16:50.314Z,99083.00
2022-09-21T15:19:28.190Z,99075.31
2022-09-21T15:22:09.386Z,99076.66
2022-09-21T15:24:36.237Z,99080.22
2022-09-21T15:27:10.350Z,99079.53
2022-09-21T15:29:38.548Z,99073.78
2022-09-21T15:32:08.080Z,99082.44
2022-09-21T15:34:36.402Z,99080.63
2022-09-21T15:37:16.551Z,99082.72
2022-09-21T15:39:43.561Z,99079.03
2022-09-21T15:42:11.211Z,99081.00
2022-09-21T15:44:39.436Z,99082.34
2022-09-21T15:47:11.170Z,99076.09
2022-09-21T15:49:39.487Z,99080.28
2022-09-21T15:52:16.453Z,99077.72
2022-09-21T15:54:52.680Z,99071.41
2022-09-21T15:57:39.610Z,99074.38
2022-09-21T16:00:18.274Z,99076.53
2022-09-21T16:03:05.092Z,99075.56
2022-09-21T16:05:43.112Z,99070.69
2022-09-21T16:08:30.190Z,99072.09
2022-09-21T16:11:16.139Z,99077.13
2022-09-21T16:14:04.840Z,99081.09
2022-09-21T16:16:31.911Z,99081.81
2022-09-21T16:19:01.996Z,99081.63
2022-09-21T16:21:40.043Z,99079.94
2022-09-21T16:24:22.828Z,99088.91
2022-09-21T16:27:03.049Z,99087.66
2022-09-21T16:29:42.257Z,99089.84
2022-09-21T16:32:18.007Z,99088.34
2022-09-21T16:34:46.717Z,99095.22
2022-09-21T16:37:27.476Z,99104.63
2022-09-21T16:39:56.175Z,99096.25
2022-09-21T16:42:28.903Z,99102.91
2022-09-21T16:44:57.792Z,99106.03
2022-09-21T16:47:27.291Z,99102.19
2022-09-21T16:49:58.047Z,99102.28
2022-09-21T16:52:28.628Z,99103.78
2022-09-21T16:54:58.846Z,99107.00
2022-09-21T16:57:26.622Z,99121.09
2022-09-21T16:59:53.451Z,99109.88
2022-09-21T17:02:23.151Z,99114.84
2022-09-21T17:04:52.737Z,99113.44
2022-09-21T17:07:20.009Z,99115.13
2022-09-21T17:09:48.943Z,99116.88
2022-09-21T17:12:22.299Z,99115.13
2022-09-21T17:14:52.027Z,99109.88
2022-09-21T17:17:22.274Z,99115.47
2022-09-21T17:19:52.980Z,99109.59
2022-09-21T17:22:22.731Z,99117.88
2022-09-21T17:24:52.518Z,99124.53
2022-09-21T17:27:23.189Z,99118.41
2022-09-21T17:29:53.915Z,99117.13
2022-09-21T17:32:25.464Z,99119.06
2022-09-21T17:35:17.238Z,99124.72
2022-09-21T17:37:45.122Z,99125.13
2022-09-21T17:40:13.035Z,99125.66
2022-09-21T17:42:43.229Z,99123.56
2022-09-21T17:45:28.900Z,99130.03
2022-09-21T17:47:57.320Z,99128.72
2022-09-21T17:50:27.247Z,99127.56
2022-09-21T17:53:16.204Z,99136.28
2022-09-21T17:55:54.527Z,99142.66
2022-09-21T17:59:01.676Z,99144.38
2022-09-21T18:01:36.248Z,99146.28
2022-09-21T18:04:05.944Z,99149.00
2022-09-21T18:06:35.002Z,99148.34
2022-09-21T18:09:02.625Z,99149.28
2022-09-21T18:11:37.004Z,99152.97
2022-09-21T18:14:22.999Z,99143.41
2022-09-21T18:17:11.092Z,99142.53
2022-09-21T18:20:26.180Z,99148.38
2022-09-21T18:23:06.754Z,99155.78
2022-09-21T18:25:50.953Z,99165.50
2022-09-21T18:28:24.092Z,99160.38
2022-09-21T18:31:31.100Z,99164.94
2022-09-21T18:34:29.933Z,99167.78
2022-09-21T18:37:45.321Z,99169.63
2022-09-21T18:40:52.105Z,99169.84
2022-09-21T18:43:26.553Z,99164.91
2022-09-21T18:46:22.401Z,99166.81
2022-09-21T18:48:51.148Z,99170.34
2022-09-21T18:51:22.141Z,99172.09
2022-09-21T18:54:02.187Z,99171.22
2022-09-21T18:56:34.819Z,99170.34
2022-09-21T18:59:02.793Z,99168.03
2022-09-21T19:01:33.001Z,99169.91
2022-09-21T19:04:01.425Z,99176.31
2022-09-21T19:06:55.030Z,99170.38
2022-09-21T19:09:45.978Z,99170.44
2022-09-21T19:12:30.200Z,99170.28
2022-09-21T19:18:21.342Z,99176.41
2022-09-21T19:21:00.206Z,99170.09
2022-09-21T19:23:58.865Z,99180.94
2022-09-21T19:26:38.928Z,99167.84
2022-09-21T19:29:33.541Z,99169.84
2022-09-21T19:32:02.219Z,99180.78
2022-09-21T19:34:30.196Z,99179.09
2022-09-21T19:37:07.019Z,99182.78
2022-09-21T19:39:37.232Z,99175.75
2022-09-21T19:42:03.905Z,99175.97
2022-09-21T19:44:51.517Z,99176.97
2022-09-21T19:47:31.535Z,99172.66
2022-09-21T19:50:20.808Z,99176.44
2022-09-21T19:52:48.007Z,99178.44
2022-09-21T19:55:41.156Z,99174.16
2022-09-21T19:58:27.809Z,99176.06
2022-09-21T20:00:56.746Z,99171.66
2022-09-21T20:03:31.751Z,99183.97
2022-09-21T20:06:19.310Z,99177.88
2022-09-21T20:08:55.226Z,99183.25
2022-09-21T20:11:41.545Z,99179.97
2022-09-21T20:14:19.298Z,99174.00
2022-09-21T20:16:50.130Z,99171.66
2022-09-21T20:19:33.337Z,99174.81
2022-09-21T20:22:09.025Z,99179.44
2022-09-21T20:25:00.212Z,99179.66
2022-09-21T20:27:34.921Z,99170.75
2022-09-21T20:30:06.082Z,99172.44
2022-09-21T20:32:35.350Z,99175.03
2022-09-21T20:35:02.174Z,99168.81
2022-09-21T20:37:31.202Z,99167.94
2022-09-21T20:40:01.677Z,99166.22
2022-09-21T20:42:28.923Z,99167.16
2022-09-21T20:44:58.881Z,99170.91
2022-09-21T20:47:28.973Z,99169.38
2022-09-21T20:50:00.503Z,99167.13
2022-09-21T20:52:27.219Z,99172.53
2022-09-21T20:54:53.869Z,99159.25
2022-09-21T20:57:21.400Z,99170.88
2022-09-21T20:59:48.118Z,99169.25
2022-09-21T21:02:16.602Z,99172.72
2022-09-21T21:04:43.314Z,99163.78
2022-09-21T21:07:10.125Z,99172.63
2022-09-21T21:09:37.723Z,99165.56
2022-09-21T21:12:05.251Z,99157.81
2022-09-21T21:14:34.692Z,99167.25
2022-09-21T21:17:02.676Z,99165.38
2022-09-21T21:19:32.223Z,99168.94
2022-09-21T21:21:59.913Z,99170.66
2022-09-21T21:24:40.264Z,99166.97
2022-09-21T21:27:19.031Z,99171.56
2022-09-21T21:29:47.325Z,99169.94
2022-09-21T21:32:15.133Z,99176.25
2022-09-21T21:34:45.223Z,99173.91
2022-09-21T21:37:16.486Z,99172.00
2022-09-21T21:39:43.457Z,99168.69
2022-09-21T21:42:10.506Z,99175.66
2022-09-21T21:44:37.499Z,99171.13
2022-09-21T21:47:27.447Z,99166.91
2022-09-21T21:49:52.396Z,99163.38
2022-09-21T21:52:19.115Z,99157.19
2022-09-21T21:54:45.854Z,99159.91
2022-09-21T21:57:15.089Z,99159.19
2022-09-21T21:59:43.755Z,99147.84
2022-09-21T22:02:10.608Z,99153.06
2022-09-21T22:04:39.189Z,99151.41
2022-09-21T22:07:07.165Z,99158.47
2022-09-21T22:09:35.472Z,99156.84
2022-09-21T22:12:03.720Z,99151.72
2022-09-21T22:14:32.779Z,99153.47
2022-09-21T22:17:01.195Z,99155.28
2022-09-21T22:19:28.313Z,99155.31
2022-09-21T22:21:55.588Z,99155.44
2022-09-21T22:24:22.642Z,99152.03
2022-09-21T22:26:49.321Z,99149.31
2022-09-21T22:29:18.037Z,99148.41
2022-09-21T22:31:49.445Z,99150.25
2022-09-21T22:34:16.663Z,99151.16
2022-09-21T22:36:44.013Z,99144.28
2022-09-21T22:39:13.907Z,99149.91
2022-09-21T22:41:43.703Z,99154.56
2022-09-21T22:44:13.954Z,99153.13
2022-09-21T22:46:44.987Z,99147.88
2022-09-21T22:49:11.690Z,99152.38
2022-09-21T22:51:38.423Z,99151.50
2022-09-21T22:54:05.451Z,99144.34
2022-09-21T22:56:33.281Z,99156.72
2022-09-21T22:59:04.449Z,99152.44
2022-09-21T23:01:40.741Z,99149.84
2022-09-21T23:04:14.073Z,99157.00
2022-09-21T23:06:43.635Z,99155.44
2022-09-21T23:09:16.843Z,99153.78
2022-09-21T23:11:47.529Z,99154.69
2022-09-21T23:14:15.990Z,99153.00
2022-09-21T23:16:43.330Z,99150.47
2022-09-21T23:19:15.459Z,99139.09
2022-09-21T23:21:49.622Z,99141.75
2022-09-21T23:24:17.584Z,99139.03
2022-09-21T23:26:50.642Z,99138.19
2022-09-21T23:29:20.909Z,99140.81
2022-09-21T23:31:47.701Z,99132.91
2022-09-21T23:34:15.495Z,99130.38
2022-09-21T23:36:46.971Z,99125.03
2022-09-21T23:39:16.166Z,99117.88
2022-09-21T23:41:43.832Z,99123.13
2022-09-21T23:44:12.125Z,99113.22
2022-09-21T23:46:40.740Z,99116.88
2022-09-21T23:49:07.865Z,99118.72
2022-09-21T23:51:40.655Z,99112.44
2022-09-21T23:54:07.867Z,99118.59
2022-09-21T23:56:35.252Z,99113.31
2022-09-21T23:59:02.417Z,99108.84
